»·PEaware :: AAL2319 KPDX-KPHX

AAL2319 :: KPDX-KPHX

FLIGHT INFORMATION

Flight Status: Arrived
Operator:
American Airlines
More flights by this operator :: More flights under this callsign
Pilot: Christopher C. (25813)
Aircraft: BOEING 737-800
(B738)
More flights by this aircraft type
Origin: KPDX Portland Intl
United States
Destination: KPHX Phoenix Sky Harbor Intl
United States
More flights between these airports :: More routes between these airports
Route: +WHAMY4 KOATA NEERO WINEN CORKR TENTS BRUSR1
File this flight plan on PilotEdge
Remarks: RMK / SIMBRIEF
Altitude:
(Current/Filed)
35,000ft
Speed:
(Current/Filed)
460kts
Departed: 29-Jul-20 05:15 PM
Arrived: 29-Jul-20 07:28 PM
Distance/Time
Traveled:
877nm/2:12
Distance/Time
To Go:
Arrived

Flight Plot

Page will automatically refresh every two minutes.


Map Options




Map Legend


Flown Route
Filed Route
Departure Airport
Arrival Airport
Navaid (VOR, NDB)
Fix

Horizontal Profiles

Position Reports

Time Latitude Longitude Heading Altitude Ground
Speed
29-Jul-20 16:40 45.591959 -122.597007 149 38ft 0kts
29-Jul-20 16:41 45.591959 -122.597007 149 38ft 0kts
29-Jul-20 16:42 45.591959 -122.597007 149 38ft 0kts
29-Jul-20 16:43 45.591959 -122.597007 149 38ft 0kts
29-Jul-20 16:44 45.591959 -122.597007 149 38ft 0kts
29-Jul-20 16:45 45.591959 -122.597007 149 38ft 0kts
29-Jul-20 16:46 45.591959 -122.597007 149 38ft 0kts
29-Jul-20 16:47 45.591959 -122.597007 149 38ft 0kts
29-Jul-20 16:48 45.591959 -122.597007 149 38ft 0kts
29-Jul-20 16:49 45.591959 -122.597007 149 38ft 0kts
29-Jul-20 16:50 45.591959 -122.597007 149 38ft 0kts
29-Jul-20 16:51 45.591959 -122.597007 149 38ft 0kts
29-Jul-20 16:52 45.591959 -122.597007 149 38ft 0kts
29-Jul-20 16:53 45.591959 -122.597007 149 38ft 0kts
29-Jul-20 16:54 45.591959 -122.597007 149 38ft 0kts
29-Jul-20 16:55 45.591959 -122.597007 149 38ft 0kts
29-Jul-20 16:56 45.591959 -122.597007 149 38ft 0kts
29-Jul-20 16:57 45.591959 -122.597007 149 38ft 0kts
29-Jul-20 16:59 45.591959 -122.597007 149 38ft 0kts
29-Jul-20 17:00 45.591959 -122.597007 149 38ft 0kts
29-Jul-20 17:01 45.592369 -122.597297 159 38ft 2kts
29-Jul-20 17:02 45.593084 -122.597312 247 38ft 2kts
29-Jul-20 17:03 45.593094 -122.597281 251 38ft 0kts
29-Jul-20 17:04 45.593094 -122.597281 251 38ft 0kts
29-Jul-20 17:05 45.593094 -122.597281 251 38ft 0kts
29-Jul-20 17:06 45.593094 -122.597281 251 38ft 0kts
29-Jul-20 17:07 45.593094 -122.597281 251 38ft 0kts
29-Jul-20 17:08 45.593072 -122.597375 251 38ft 5kts
29-Jul-20 17:09 45.590616 -122.601200 213 38ft 13kts
29-Jul-20 17:10 45.587828 -122.599449 118 38ft 23kts
29-Jul-20 17:11 45.584720 -122.591512 119 38ft 21kts
29-Jul-20 17:12 45.582052 -122.584653 118 38ft 18kts
29-Jul-20 17:13 45.581540 -122.583590 161 38ft 0kts
29-Jul-20 17:13 45.581402 -122.583559 179 38ft 6kts
29-Jul-20 17:15 45.586312 -122.598785 298 38ft 126kts
29-Jul-20 17:16 45.609147 -122.655279 300 1932ft 177kts
29-Jul-20 17:16 45.628246 -122.706309 300 3897ft 179kts
29-Jul-20 17:17 45.658574 -122.773712 299 5351ft 239kts
29-Jul-20 17:19 45.657182 -122.890542 241 6978ft 283kts
29-Jul-20 17:19 45.600312 -122.922299 162 8906ft 286kts
29-Jul-20 17:20 45.534169 -122.858311 133 11673ft 292kts
29-Jul-20 17:21 45.497007 -122.751611 117 14280ft 309kts
29-Jul-20 17:22 45.461706 -122.637417 117 15001ft 314kts
29-Jul-20 17:23 45.426050 -122.523629 117 14997ft 315kts
29-Jul-20 17:24 45.389401 -122.406059 116 15933ft 348kts
29-Jul-20 17:25 45.347200 -122.269650 117 16867ft 400kts
29-Jul-20 17:26 45.300349 -122.122676 117 18813ft 414kts
29-Jul-20 17:27 45.249431 -121.973878 125 20521ft 423kts
29-Jul-20 17:28 45.175745 -121.841311 132 22053ft 433kts
29-Jul-20 17:29 45.097971 -121.707953 132 22921ft 442kts
29-Jul-20 17:30 45.020077 -121.573854 131 22936ft 442kts
29-Jul-20 17:31 44.941693 -121.437992 132 24087ft 451kts
29-Jul-20 17:32 44.861079 -121.299906 132 25258ft 461kts
29-Jul-20 17:33 44.778227 -121.158866 132 26336ft 470kts
29-Jul-20 17:34 44.693944 -121.016136 133 27321ft 480kts
29-Jul-20 17:35 44.607624 -120.870699 133 28214ft 489kts
29-Jul-20 17:36 44.520205 -120.724165 134 29343ft 490kts
29-Jul-20 17:37 44.432110 -120.577252 134 30507ft 492kts
29-Jul-20 17:38 44.343783 -120.430709 135 31631ft 494kts
29-Jul-20 17:39 44.254666 -120.283618 136 32647ft 497kts
29-Jul-20 17:40 44.165177 -120.136667 136 33673ft 498kts
29-Jul-20 17:41 44.075331 -119.989897 137 34742ft 497kts
29-Jul-20 17:42 43.985347 -119.843643 137 35055ft 497kts
29-Jul-20 17:43 43.895538 -119.698408 137 35059ft 494kts
29-Jul-20 17:44 43.805812 -119.554027 137 35065ft 495kts
29-Jul-20 17:45 43.715766 -119.409874 137 35074ft 496kts
29-Jul-20 17:46 43.625319 -119.265238 137 35083ft 498kts
29-Jul-20 17:47 43.534355 -119.121166 137 35088ft 498kts
29-Jul-20 17:48 43.440057 -118.982148 149 35088ft 488kts
29-Jul-20 17:49 43.322698 -118.898551 165 35088ft 473kts
29-Jul-20 17:50 43.201479 -118.827736 164 35085ft 474kts
29-Jul-20 17:51 43.080633 -118.756162 164 35077ft 474kts
29-Jul-20 17:52 42.959472 -118.684395 164 35068ft 474kts
29-Jul-20 17:53 42.838288 -118.613124 164 35061ft 474kts
29-Jul-20 17:54 42.717121 -118.542195 165 35055ft 474kts
29-Jul-20 17:55 42.595889 -118.471526 165 35051ft 474kts
29-Jul-20 17:56 42.474399 -118.401003 165 35051ft 474kts
29-Jul-20 17:57 42.353070 -118.330868 165 35050ft 474kts
29-Jul-20 17:58 42.231339 -118.260798 165 35050ft 476kts
29-Jul-20 17:59 42.109624 -118.190981 165 35044ft 476kts
29-Jul-20 18:00 41.987743 -118.121247 165 35045ft 475kts
29-Jul-20 18:01 41.865719 -118.051991 164 35045ft 476kts
29-Jul-20 18:02 41.755116 -117.947198 144 35046ft 498kts
29-Jul-20 18:03 41.654183 -117.819993 144 35042ft 498kts
29-Jul-20 18:04 41.552635 -117.693136 143 35047ft 499kts
29-Jul-20 18:05 41.452064 -117.566933 144 35050ft 493kts
29-Jul-20 18:06 41.352166 -117.443011 144 35051ft 488kts
29-Jul-20 18:07 41.252515 -117.320003 143 35053ft 495kts
29-Jul-20 18:08 41.150710 -117.194892 143 35055ft 499kts
29-Jul-20 18:09 41.048340 -117.069658 143 35058ft 500kts
29-Jul-20 18:10 40.946290 -116.945359 143 35063ft 500kts
29-Jul-20 18:11 40.843590 -116.820825 143 35071ft 499kts
29-Jul-20 18:12 40.740953 -116.696907 143 35075ft 500kts
29-Jul-20 18:13 40.637756 -116.572864 143 35078ft 501kts
29-Jul-20 18:14 40.534996 -116.449881 143 35091ft 501kts
29-Jul-20 18:15 40.431573 -116.326638 143 35106ft 500kts
29-Jul-20 18:16 40.328424 -116.204253 143 35122ft 500kts
29-Jul-20 18:17 40.224814 -116.081851 143 35137ft 501kts
29-Jul-20 18:18 40.121227 -115.959998 143 35154ft 500kts
29-Jul-20 18:19 40.017742 -115.838786 143 35172ft 500kts
29-Jul-20 18:20 39.914066 -115.717865 143 35189ft 500kts
29-Jul-20 18:21 39.810074 -115.597090 143 35176ft 501kts
29-Jul-20 18:22 39.706213 -115.476976 143 35182ft 500kts
29-Jul-20 18:23 39.601807 -115.356736 143 35195ft 500kts
29-Jul-20 18:24 39.497714 -115.237357 143 35216ft 500kts
29-Jul-20 18:25 39.393046 -115.117822 143 35235ft 500kts
29-Jul-20 18:26 39.288669 -114.999111 143 35247ft 500kts
29-Jul-20 18:27 39.183934 -114.880485 143 35248ft 501kts
29-Jul-20 18:28 39.079197 -114.762344 143 35244ft 500kts
29-Jul-20 18:29 38.974106 -114.644292 143 35237ft 501kts
29-Jul-20 18:30 38.869088 -114.526800 143 35222ft 500kts
29-Jul-20 18:31 38.763925 -114.409625 143 35207ft 500kts
29-Jul-20 18:32 38.658873 -114.293047 143 35190ft 500kts
29-Jul-20 18:33 38.553342 -114.176407 143 35174ft 500kts
29-Jul-20 18:34 38.448133 -114.060588 143 35156ft 500kts
29-Jul-20 18:35 38.342730 -113.945018 142 35162ft 501kts
29-Jul-20 18:36 38.237039 -113.829587 143 35160ft 499kts
29-Jul-20 18:37 38.131389 -113.714263 143 35162ft 499kts
29-Jul-20 18:38 38.025782 -113.600027 143 35168ft 500kts
29-Jul-20 18:39 37.916683 -113.491265 153 35161ft 494kts
29-Jul-20 18:40 37.793825 -113.414857 159 35174ft 491kts
29-Jul-20 18:41 37.670483 -113.340567 158 35187ft 492kts
29-Jul-20 18:42 37.547068 -113.265661 158 35185ft 492kts
29-Jul-20 18:43 37.423479 -113.190991 158 35166ft 493kts
29-Jul-20 18:44 37.299819 -113.116657 158 35146ft 493kts
29-Jul-20 18:45 37.175886 -113.042444 158 35163ft 493kts
29-Jul-20 18:46 37.052284 -112.968701 158 35190ft 493kts
29-Jul-20 18:47 36.928244 -112.894965 158 35198ft 493kts
29-Jul-20 18:48 36.804166 -112.821472 158 35198ft 493kts
29-Jul-20 18:49 36.680408 -112.748431 158 35201ft 492kts
29-Jul-20 18:50 36.556300 -112.675444 158 35210ft 492kts
29-Jul-20 18:51 36.432115 -112.602670 157 35226ft 493kts
29-Jul-20 18:53 36.308430 -112.530241 157 35247ft 493kts
29-Jul-20 18:54 36.183888 -112.457885 157 35269ft 492kts
29-Jul-20 18:55 36.055868 -112.404816 180 35132ft 475kts
29-Jul-20 18:56 35.926029 -112.413565 188 32248ft 476kts
29-Jul-20 18:57 35.792908 -112.425646 187 29706ft 475kts
29-Jul-20 18:58 35.658682 -112.437451 186 29355ft 488kts
29-Jul-20 18:59 35.524114 -112.449019 185 29318ft 478kts
29-Jul-20 19:00 35.393660 -112.432862 172 29328ft 470kts
29-Jul-20 19:01 35.264287 -112.407153 173 29329ft 470kts
29-Jul-20 19:02 35.135025 -112.380680 171 28538ft 470kts
29-Jul-20 19:03 35.008214 -112.353034 171 26780ft 455kts
29-Jul-20 19:04 34.885343 -112.326498 170 25091ft 443kts
29-Jul-20 19:05 34.765114 -112.300132 169 23456ft 432kts
29-Jul-20 19:05 34.667740 -112.278646 169 22133ft 421kts
29-Jul-20 19:07 34.534970 -112.249586 169 20555ft 408kts
29-Jul-20 19:08 34.426706 -112.225680 167 19232ft 383kts
29-Jul-20 19:09 34.323685 -112.198411 166 17602ft 370kts
29-Jul-20 19:09 34.241136 -112.177018 166 16401ft 358kts
29-Jul-20 19:11 34.129252 -112.148177 167 14770ft 346kts
29-Jul-20 19:11 34.052785 -112.124722 160 13657ft 332kts
29-Jul-20 19:13 33.953156 -112.082943 161 12172ft 319kts
29-Jul-20 19:13 33.883656 -112.054726 161 11176ft 312kts
29-Jul-20 19:14 33.801421 -112.021349 162 9963ft 304kts
29-Jul-20 19:15 33.722696 -111.989491 163 8821ft 293kts
29-Jul-20 19:16 33.647445 -111.959090 163 8126ft 276kts
29-Jul-20 19:17 33.575289 -111.929951 163 7481ft 272kts
29-Jul-20 19:18 33.522555 -111.875957 98 7041ft 258kts
29-Jul-20 19:20 33.559283 -111.794609 79 7049ft 254kts
29-Jul-20 19:20 33.559254 -111.722441 92 7058ft 257kts
29-Jul-20 19:21 33.512873 -111.683923 209 6994ft 228kts
29-Jul-20 19:22 33.469303 -111.735923 223 5738ft 228kts
29-Jul-20 19:23 33.440500 -111.800398 268 4382ft 226kts
29-Jul-20 19:24 33.440743 -111.874363 269 3179ft 214kts
29-Jul-20 19:25 33.440745 -111.937347 269 2150ft 163kts
29-Jul-20 19:26 33.440878 -111.984667 269 1337ft 134kts
29-Jul-20 19:27 33.440870 -112.016082 268 1143ft 15kts
29-Jul-20 19:28 33.440239 -112.017047 184 1143ft 0kts
29-Jul-20 19:29 33.439726 -112.014616 88 1143ft 16kts

Navigation Log

Ident Type
Flight plan parsing failed, navigation log unavailable